Time;durP1;ratioP1;P1;durP2;ratioP2;P2;SDS_P1;SDS_P2;PMS_P1;PMS_P2;Temp;Humidity;BMP_temperature;BMP_pressure;BME280_temperature;BME280_humidity;BME280_pressure;Samples;Min_cycle;Max_cycle;Signal;HPM_P1;HPM_P2
2021/10/08 00:02:02;;;;;;;10.63;6.60;;;9.80;99.90;;;;;;5050895;28;20463;-66
2021/10/08 00:04:29;;;;;;;8.43;7.60;;;9.80;99.90;;;;;;5051212;28;20456;-66
2021/10/08 00:06:56;;;;;;;7.03;6.33;;;9.80;99.90;;;;;;5049570;28;20900;-65
2021/10/08 00:09:28;;;;;;;6.80;6.10;;;9.80;99.90;;;;;;5050753;28;20539;-66
2021/10/08 00:11:55;;;;;;;9.00;7.67;;;9.80;99.90;;;;;;5050782;28;20788;-66
2021/10/08 00:14:22;;;;;;;7.23;6.53;;;9.70;99.90;;;;;;5050778;28;20630;-67
2021/10/08 00:16:49;;;;;;;8.50;6.73;;;9.80;99.90;;;;;;5050239;28;20463;-67
2021/10/08 00:19:18;;;;;;;11.53;7.17;;;9.70;99.90;;;;;;5050821;28;20546;-67
2021/10/08 00:21:45;;;;;;;7.53;6.03;;;9.70;99.90;;;;;;5050529;28;20448;-66
2021/10/08 00:24:12;;;;;;;7.47;6.67;;;9.50;99.90;;;;;;5050510;28;20443;-67
2021/10/08 00:26:40;;;;;;;8.07;6.87;;;9.30;99.90;;;;;;5050320;28;20515;-66
2021/10/08 00:29:07;;;;;;;9.37;7.40;;;9.30;99.90;;;;;;5050451;28;20470;-67
2021/10/08 00:31:34;;;;;;;8.90;7.70;;;9.10;99.90;;;;;;5050663;28;20816;-66
2021/10/08 00:34:00;;;;;;;9.63;7.27;;;9.00;99.90;;;;;;5050578;28;20820;-66
2021/10/08 00:36:29;;;;;;;9.70;8.30;;;8.90;99.90;;;;;;5050075;28;20447;-66
2021/10/08 00:38:55;;;;;;;8.23;7.20;;;8.80;99.90;;;;;;5050359;28;20456;-66
2021/10/08 00:41:23;;;;;;;13.83;8.30;;;8.70;99.90;;;;;;5050239;28;20869;-66
2021/10/08 00:43:50;;;;;;;10.07;9.07;;;8.60;99.90;;;;;;5050064;28;20444;-66
2021/10/08 00:46:16;;;;;;;8.47;7.57;;;8.60;99.90;;;;;;5049878;28;20476;-66
2021/10/08 00:48:43;;;;;;;10.73;7.17;;;8.60;99.90;;;;;;5049978;28;20464;-66
2021/10/08 00:51:10;;;;;;;8.93;7.80;;;8.60;99.90;;;;;;5050105;28;20444;-65
2021/10/08 00:53:38;;;;;;;8.83;7.93;;;8.50;99.90;;;;;;5050133;28;20444;-67
2021/10/08 00:56:06;;;;;;;8.43;7.53;;;8.50;99.90;;;;;;5049954;28;20444;-66
2021/10/08 00:58:32;;;;;;;10.13;7.87;;;8.40;99.90;;;;;;5049805;28;20467;-67
2021/10/08 01:00:59;;;;;;;8.37;7.47;;;8.30;99.90;;;;;;5050092;28;20452;-66
2021/10/08 01:03:26;;;;;;;8.70;7.50;;;8.30;99.90;;;;;;5050097;28;20539;-66
2021/10/08 01:05:53;;;;;;;9.33;8.27;;;8.30;99.90;;;;;;5049780;28;20451;-66
2021/10/08 01:08:20;;;;;;;12.23;8.63;;;8.20;99.90;;;;;;5049702;28;20474;-66
2021/10/08 01:10:48;;;;;;;12.03;8.90;;;8.20;99.90;;;;;;5049829;28;20448;-67
2021/10/08 01:13:16;;;;;;;11.00;9.83;;;8.10;99.90;;;;;;5049811;28;20447;-67
2021/10/08 01:15:44;;;;;;;11.90;10.63;;;8.10;99.90;;;;;;5050096;28;20462;-67
2021/10/08 01:18:11;;;;;;;12.93;10.63;;;8.10;99.90;;;;;;5049496;28;20468;-66
2021/10/08 01:20:39;;;;;;;12.43;11.13;;;8.10;99.90;;;;;;5049908;28;20454;-67
2021/10/08 01:23:06;;;;;;;14.10;10.70;;;8.00;99.90;;;;;;5050129;28;20444;-67
2021/10/08 01:25:36;;;;;;;11.30;10.10;;;8.00;99.90;;;;;;5050073;28;20451;-66
2021/10/08 01:28:04;;;;;;;10.60;9.50;;;8.00;99.90;;;;;;5049960;28;20507;-66
2021/10/08 01:30:32;;;;;;;13.10;10.07;;;8.00;99.90;;;;;;5050411;28;20450;-65
2021/10/08 01:32:59;;;;;;;11.33;9.77;;;8.00;99.90;;;;;;5049824;28;20448;-66
2021/10/08 01:35:26;;;;;;;11.80;10.70;;;7.90;99.90;;;;;;5049798;28;20454;-66
2021/10/08 01:37:54;;;;;;;12.00;10.70;;;7.90;99.90;;;;;;5049245;28;20468;-66
2021/10/08 01:40:21;;;;;;;12.00;10.77;;;7.90;99.90;;;;;;5050036;28;20452;-70
2021/10/08 01:42:48;;;;;;;12.73;10.60;;;7.90;99.90;;;;;;5049930;28;20450;-66
2021/10/08 01:45:16;;;;;;;12.63;10.40;;;7.90;99.90;;;;;;5049773;28;20824;-66
2021/10/08 01:47:43;;;;;;;10.73;9.63;;;7.80;99.90;;;;;;5049192;28;20885;-66
2021/10/08 01:50:11;;;;;;;10.40;9.07;;;7.80;99.90;;;;;;5049328;28;20444;-66
2021/10/08 01:52:38;;;;;;;11.87;10.60;;;7.70;99.90;;;;;;5049460;28;20455;-66
2021/10/08 01:55:07;;;;;;;12.53;8.97;;;7.70;99.90;;;;;;5049665;28;20448;-67
2021/10/08 01:57:34;;;;;;;10.50;9.50;;;7.70;99.90;;;;;;5049219;28;20806;-66
2021/10/08 02:00:01;;;;;;;10.33;9.33;;;7.70;99.90;;;;;;5049509;28;20463;-66
2021/10/08 02:02:28;;;;;;;14.03;9.77;;;7.60;99.90;;;;;;5049497;28;20564;-66
2021/10/08 02:04:54;;;;;;;10.97;9.80;;;7.50;99.90;;;;;;5049304;28;20845;-66
2021/10/08 02:07:21;;;;;;;14.50;10.37;;;7.50;99.90;;;;;;5048987;28;20487;-67
2021/10/08 02:09:48;;;;;;;14.17;10.70;;;7.50;99.90;;;;;;5049229;28;20464;-65
2021/10/08 02:12:16;;;;;;;13.83;12.03;;;7.50;99.90;;;;;;5049527;28;20447;-67
2021/10/08 02:14:43;;;;;;;15.50;11.97;;;7.50;99.90;;;;;;5049232;28;20834;-66
2021/10/08 02:17:10;;;;;;;13.40;11.97;;;7.40;99.90;;;;;;5048866;28;20460;-68
2021/10/08 02:19:37;;;;;;;11.00;9.80;;;7.40;99.90;;;;;;5049016;28;20450;-67
2021/10/08 02:22:04;;;;;;;12.47;11.17;;;7.40;99.90;;;;;;5048972;28;20444;-67
2021/10/08 02:24:31;;;;;;;14.17;11.77;;;7.40;99.90;;;;;;5049284;28;20454;-66
2021/10/08 02:26:58;;;;;;;12.53;11.23;;;7.30;99.90;;;;;;5048592;28;20484;-66
2021/10/08 02:29:26;;;;;;;12.87;11.57;;;7.30;99.90;;;;;;5049058;28;20450;-67
2021/10/08 02:31:54;;;;;;;14.97;11.90;;;7.30;99.90;;;;;;5052150;28;20455;-67
2021/10/08 02:34:21;;;;;;;11.80;10.40;;;7.20;99.90;;;;;;5052614;28;20452;-67
2021/10/08 02:36:48;;;;;;;12.30;10.90;;;7.20;99.90;;;;;;5052639;28;20463;-67
2021/10/08 02:39:15;;;;;;;14.17;11.10;;;7.20;99.90;;;;;;5052583;28;20827;-67
2021/10/08 02:41:41;;;;;;;13.20;11.60;;;7.10;99.90;;;;;;5052748;28;20447;-67
2021/10/08 02:44:09;;;;;;;13.90;11.57;;;7.10;99.90;;;;;;5052363;28;20450;-67
2021/10/08 02:46:37;;;;;;;11.60;10.33;;;7.20;99.90;;;;;;5052008;28;20490;-67
2021/10/08 02:49:04;;;;;;;11.43;10.17;;;7.10;99.90;;;;;;5052369;28;20450;-67
2021/10/08 02:51:33;;;;;;;10.97;9.87;;;7.10;99.90;;;;;;5052554;28;20444;-65
2021/10/08 02:54:00;;;;;;;12.57;11.27;;;7.00;99.90;;;;;;5052225;28;20960;-67
2021/10/08 02:56:27;;;;;;;13.70;11.17;;;7.10;99.90;;;;;;5051845;28;20439;-67
2021/10/08 02:58:54;;;;;;;12.33;11.03;;;7.10;99.90;;;;;;5052150;28;20443;-67
2021/10/08 03:01:22;;;;;;;12.03;10.40;;;7.10;99.90;;;;;;5052231;28;20435;-66
2021/10/08 03:03:50;;;;;;;13.23;11.30;;;7.10;99.90;;;;;;5052040;28;20931;-67
2021/10/08 03:06:17;;;;;;;13.10;11.13;;;7.00;99.90;;;;;;5052113;28;20444;-67
2021/10/08 03:08:45;;;;;;;13.17;11.43;;;7.00;99.90;;;;;;5051916;28;20478;-67
2021/10/08 03:11:12;;;;;;;13.20;11.80;;;6.90;99.90;;;;;;5052063;28;20479;-67
2021/10/08 03:13:39;;;;;;;15.40;12.90;;;6.90;99.90;;;;;;5051984;28;20436;-67
2021/10/08 03:16:06;;;;;;;15.17;12.17;;;6.90;99.90;;;;;;5052120;28;20535;-67
2021/10/08 03:18:33;;;;;;;14.60;13.10;;;6.90;99.90;;;;;;5051440;28;20998;-67
2021/10/08 03:21:01;;;;;;;17.57;14.30;;;6.90;99.90;;;;;;5052017;28;20440;-66
2021/10/08 03:23:28;;;;;;;15.30;13.70;;;6.90;99.90;;;;;;5051736;28;20966;-66
2021/10/08 03:25:55;;;;;;;20.27;14.47;;;6.80;99.90;;;;;;5051703;28;20454;-66
2021/10/08 03:28:21;;;;;;;16.67;13.40;;;6.80;99.90;;;;;;5051238;28;20866;-66
2021/10/08 03:30:48;;;;;;;17.97;14.50;;;6.90;99.90;;;;;;5052014;28;20458;-66
2021/10/08 03:33:15;;;;;;;17.20;13.67;;;6.80;99.90;;;;;;5051913;28;20479;-67
2021/10/08 03:35:43;;;;;;;20.43;14.60;;;6.80;99.90;;;;;;5051686;28;20446;-67
2021/10/08 03:38:14;;;;;;;16.57;13.30;;;6.80;99.90;;;;;;5051162;28;20476;-67
2021/10/08 03:40:42;;;;;;;17.90;14.00;;;6.80;99.90;;;;;;5051453;28;20448;-65
2021/10/08 03:43:11;;;;;;;18.93;14.20;;;6.80;99.90;;;;;;5051703;28;20800;-67
2021/10/08 03:45:45;;;;;;;18.60;13.90;;;6.70;99.90;;;;;;5051552;28;20455;-67
2021/10/08 03:48:22;;;;;;;19.30;14.40;;;6.70;99.90;;;;;;5051099;28;20535;-67
2021/10/08 03:50:49;;;;;;;17.30;14.30;;;6.70;99.90;;;;;;5051508;28;20448;-65
2021/10/08 03:53:17;;;;;;;16.57;12.80;;;6.70;99.90;;;;;;5051184;28;20470;-68
2021/10/08 03:55:44;;;;;;;18.73;14.30;;;6.70;99.90;;;;;;5051464;28;20526;-67
2021/10/08 03:58:11;;;;;;;17.13;13.73;;;6.70;99.90;;;;;;5051405;28;20456;-66
2021/10/08 04:00:38;;;;;;;18.90;13.83;;;6.70;99.90;;;;;;5051619;28;20454;-67
2021/10/08 04:03:05;;;;;;;21.50;14.77;;;6.80;99.90;;;;;;5051376;28;20531;-67
2021/10/08 04:05:32;;;;;;;14.37;12.73;;;6.70;99.90;;;;;;5051450;28;20470;-67
2021/10/08 04:07:59;;;;;;;18.80;14.70;;;6.60;99.90;;;;;;5050772;28;20484;-67
2021/10/08 04:10:27;;;;;;;16.60;14.30;;;6.60;99.90;;;;;;5051170;28;20454;-66
2021/10/08 04:12:54;;;;;;;17.00;13.60;;;6.60;99.90;;;;;;5051200;28;20510;-67
2021/10/08 04:15:22;;;;;;;16.40;14.23;;;6.50;99.90;;;;;;5051073;28;20455;-67
2021/10/08 04:17:49;;;;;;;18.73;14.50;;;6.60;99.90;;;;;;5050328;28;20491;-68
2021/10/08 04:20:15;;;;;;;18.00;14.03;;;6.60;99.90;;;;;;5050548;28;20451;-67
2021/10/08 04:22:42;;;;;;;21.20;14.50;;;6.60;99.90;;;;;;5050959;28;21049;-67
2021/10/08 04:25:09;;;;;;;15.70;13.27;;;6.60;99.90;;;;;;5050808;28;20966;-68
2021/10/08 04:27:38;;;;;;;18.53;13.97;;;6.60;99.90;;;;;;5050222;28;20483;-66
2021/10/08 04:30:05;;;;;;;17.77;14.00;;;6.60;99.90;;;;;;5050445;28;20452;-66
2021/10/08 04:32:32;;;;;;;17.30;15.27;;;6.50;99.90;;;;;;5050581;28;20448;-66
2021/10/08 04:34:59;;;;;;;19.50;14.77;;;6.50;99.90;;;;;;5050277;28;20448;-65
2021/10/08 04:37:25;;;;;;;16.03;14.03;;;6.60;99.90;;;;;;5050099;28;20466;-66
2021/10/08 04:39:52;;;;;;;16.60;14.87;;;6.50;99.90;;;;;;5050271;28;20464;-65
2021/10/08 04:42:19;;;;;;;19.70;14.57;;;6.50;99.90;;;;;;5050451;28;20975;-65
2021/10/08 04:44:47;;;;;;;18.70;15.17;;;6.40;99.90;;;;;;5050266;28;20448;-66
2021/10/08 04:47:14;;;;;;;18.03;13.67;;;6.30;99.90;;;;;;5049722;28;20483;-66
2021/10/08 04:49:41;;;;;;;14.73;12.90;;;6.40;99.90;;;;;;5050284;28;20450;-66
2021/10/08 04:52:09;;;;;;;17.73;14.37;;;6.40;99.90;;;;;;5050385;28;20448;-63
2021/10/08 04:54:37;;;;;;;19.63;15.53;;;6.30;99.90;;;;;;5049684;28;20474;-65
2021/10/08 04:57:04;;;;;;;20.40;14.60;;;6.30;99.90;;;;;;5012306;28;20470;-67
2021/10/08 04:59:31;;;;;;;18.30;13.80;;;6.40;99.90;;;;;;5010521;28;20450;-66
2021/10/08 05:01:59;;;;;;;19.40;16.00;;;6.30;99.90;;;;;;5010268;28;20461;-66
2021/10/08 05:04:26;;;;;;;25.23;16.87;;;6.40;99.90;;;;;;5010681;28;20445;-67
2021/10/08 05:06:53;;;;;;;21.77;16.63;;;6.40;99.90;;;;;;5014658;28;20479;-67
2021/10/08 05:09:20;;;;;;;20.60;15.30;;;6.40;99.90;;;;;;5029810;28;20444;-66
2021/10/08 05:11:47;;;;;;;20.97;15.90;;;6.40;99.90;;;;;;5027391;28;20448;-66
2021/10/08 05:14:14;;;;;;;16.30;14.50;;;6.30;99.90;;;;;;5026852;28;20892;-66
2021/10/08 05:16:41;;;;;;;15.83;13.73;;;6.30;99.90;;;;;;5031011;28;20461;-66
2021/10/08 05:19:10;;;;;;;15.63;13.20;;;6.40;99.90;;;;;;5028762;28;20437;-65
2021/10/08 05:21:36;;;;;;;15.93;12.87;;;6.30;99.90;;;;;;5022644;28;20441;-66
2021/10/08 05:24:03;;;;;;;17.53;14.80;;;6.30;99.90;;;;;;5028213;28;20452;-68
2021/10/08 05:26:30;;;;;;;16.00;13.77;;;6.20;99.90;;;;;;5027610;28;20444;-65
2021/10/08 05:28:57;;;;;;;16.17;13.97;;;6.20;99.90;;;;;;5029348;28;20480;-66
2021/10/08 05:31:24;;;;;;;19.07;14.57;;;6.30;99.90;;;;;;5029511;28;20449;-65
2021/10/08 05:33:51;;;;;;;16.30;14.23;;;6.30;99.90;;;;;;5029852;28;20467;-65
2021/10/08 05:36:19;;;;;;;20.10;14.13;;;6.30;99.90;;;;;;5029521;28;20445;-64
2021/10/08 05:38:46;;;;;;;18.20;15.10;;;6.30;99.90;;;;;;5029611;28;20453;-66
2021/10/08 05:41:13;;;;;;;15.80;14.10;;;6.40;99.90;;;;;;5029654;28;20457;-66
2021/10/08 05:43:39;;;;;;;20.63;15.60;;;6.40;99.90;;;;;;5029580;28;20940;-66
2021/10/08 05:46:06;;;;;;;18.47;14.83;;;6.30;99.90;;;;;;5029813;28;20455;-66
2021/10/08 05:48:33;;;;;;;18.70;16.57;;;6.30;99.90;;;;;;5029248;28;21046;-65
2021/10/08 05:51:00;;;;;;;19.10;15.30;;;6.40;99.90;;;;;;5029947;28;20462;-66
2021/10/08 05:53:28;;;;;;;26.20;17.23;;;6.40;99.90;;;;;;5029523;28;20912;-67
2021/10/08 05:55:55;;;;;;;25.00;17.30;;;6.50;99.90;;;;;;5029562;28;20441;-67
2021/10/08 05:58:22;;;;;;;20.13;15.83;;;6.50;99.90;;;;;;5028985;28;20486;-66
2021/10/08 06:00:48;;;;;;;20.83;14.93;;;6.50;99.90;;;;;;5029567;28;20471;-66
2021/10/08 06:03:15;;;;;;;17.47;15.40;;;6.60;99.90;;;;;;5029444;28;20444;-66
2021/10/08 06:05:42;;;;;;;20.90;16.60;;;6.60;99.90;;;;;;5030944;28;20445;-65
2021/10/08 06:08:10;;;;;;;18.20;15.00;;;6.60;99.90;;;;;;5031042;28;20487;-66
2021/10/08 06:10:38;;;;;;;20.77;16.40;;;6.50;99.90;;;;;;5033110;28;20998;-66
2021/10/08 06:13:05;;;;;;;31.60;21.87;;;6.50;99.90;;;;;;5032943;28;20476;-65
2021/10/08 06:15:32;;;;;;;21.03;16.93;;;6.60;99.90;;;;;;5033206;28;20459;-65
2021/10/08 06:17:59;;;;;;;24.33;17.30;;;6.80;99.90;;;;;;5033025;28;20551;-64
2021/10/08 06:20:26;;;;;;;19.93;17.13;;;7.00;99.90;;;;;;5033232;28;20444;-64
2021/10/08 06:22:53;;;;;;;20.43;18.20;;;7.10;99.90;;;;;;5032883;28;20503;-64
2021/10/08 06:25:20;;;;;;;23.20;16.53;;;7.10;99.90;;;;;;5033026;28;20447;-65
2021/10/08 06:27:51;;;;;;;20.00;16.47;;;7.20;99.90;;;;;;5032787;28;20490;-64
2021/10/08 06:30:19;;;;;;;20.77;17.13;;;7.30;99.90;;;;;;5033175;28;20456;-64
2021/10/08 06:32:46;;;;;;;20.70;16.90;;;7.40;99.90;;;;;;5033078;28;20451;-66
2021/10/08 06:35:13;;;;;;;21.00;17.43;;;7.50;99.90;;;;;;5033195;28;20479;-67
2021/10/08 06:37:40;;;;;;;21.10;17.70;;;7.60;99.90;;;;;;5027060;28;20463;-64
2021/10/08 06:40:08;;;;;;;23.27;18.23;;;7.60;99.90;;;;;;5013198;28;20529;-65
2021/10/08 06:42:35;;;;;;;24.03;18.27;;;7.60;99.90;;;;;;5013121;28;20961;-65
2021/10/08 06:45:04;;;;;;;21.87;17.47;;;7.70;99.90;;;;;;5013035;28;20450;-65
2021/10/08 06:47:32;;;;;;;22.37;18.67;;;7.80;99.90;;;;;;5012649;28;20523;-64
2021/10/08 06:49:59;;;;;;;21.77;17.60;;;7.90;99.90;;;;;;5013080;28;20449;-65
2021/10/08 06:52:25;;;;;;;22.43;17.90;;;8.00;99.90;;;;;;5012877;28;20454;-64
2021/10/08 06:54:52;;;;;;;21.33;17.23;;;8.10;99.90;;;;;;5013122;28;20473;-65
2021/10/08 06:57:19;;;;;;;21.73;17.47;;;8.20;99.90;;;;;;5012373;28;20981;-66
2021/10/08 06:59:46;;;;;;;18.67;16.20;;;8.20;99.90;;;;;;5012687;28;20963;-66
2021/10/08 07:02:14;;;;;;;20.13;16.33;;;8.30;99.90;;;;;;5012711;28;20486;-66
2021/10/08 07:04:41;;;;;;;21.07;17.70;;;8.40;99.90;;;;;;5012609;28;20454;-66
2021/10/08 07:07:08;;;;;;;23.13;18.53;;;8.50;99.90;;;;;;5012203;28;20544;-66
2021/10/08 07:09:35;;;;;;;22.13;17.87;;;8.60;99.90;;;;;;5012657;28;20484;-66
2021/10/08 07:12:01;;;;;;;20.33;16.10;;;8.80;99.90;;;;;;5012418;28;20933;-66
2021/10/08 07:14:28;;;;;;;17.40;15.60;;;9.20;99.90;;;;;;5012522;28;20450;-66
2021/10/08 07:16:55;;;;;;;18.27;16.37;;;9.60;99.90;;;;;;5011552;28;20476;-66
2021/10/08 07:19:24;;;;;;;16.57;14.03;;;9.80;99.90;;;;;;5012302;28;20450;-67
2021/10/08 07:21:51;;;;;;;15.90;14.10;;;9.80;99.90;;;;;;5012378;28;20481;-67
2021/10/08 07:24:18;;;;;;;15.60;13.33;;;9.80;99.90;;;;;;5012274;28;20544;-67
2021/10/08 07:26:45;;;;;;;16.00;13.20;;;9.80;99.90;;;;;;5012082;28;20905;-66
2021/10/08 07:29:12;;;;;;;16.47;14.33;;;9.80;99.90;;;;;;5012312;28;20488;-66
2021/10/08 07:31:39;;;;;;;16.13;14.03;;;9.80;99.90;;;;;;5012197;28;20437;-66
2021/10/08 07:34:06;;;;;;;14.63;13.07;;;9.80;99.90;;;;;;5011819;28;20838;-65
2021/10/08 07:36:34;;;;;;;14.67;13.17;;;9.90;99.90;;;;;;5011543;28;20449;-66
2021/10/08 07:39:01;;;;;;;16.00;14.40;;;9.90;99.90;;;;;;5011959;28;20460;-65
2021/10/08 07:41:28;;;;;;;16.27;14.57;;;10.00;99.90;;;;;;5011910;28;20471;-65
2021/10/08 07:43:55;;;;;;;15.73;13.87;;;10.00;99.90;;;;;;5011793;28;20445;-66
2021/10/08 07:46:24;;;;;;;17.00;15.20;;;10.10;99.90;;;;;;5011374;28;20445;-65
2021/10/08 07:48:50;;;;;;;24.20;17.43;;;10.20;99.90;;;;;;5011522;28;20595;-66
2021/10/08 07:51:17;;;;;;;19.83;16.53;;;10.20;99.90;;;;;;5011674;28;20456;-64
2021/10/08 07:53:45;;;;;;;18.57;15.17;;;10.40;99.90;;;;;;5011889;28;20445;-65
2021/10/08 07:56:13;;;;;;;19.67;16.10;;;10.50;99.90;;;;;;5011534;28;20446;-65
2021/10/08 07:58:40;;;;;;;17.60;15.27;;;10.60;99.90;;;;;;5011273;28;20855;-65
2021/10/08 08:01:07;;;;;;;52.30;20.73;;;10.70;99.90;;;;;;5011174;28;20439;-66
2021/10/08 08:03:34;;;;;;;28.47;19.00;;;10.80;99.90;;;;;;5011476;28;20690;-66
2021/10/08 08:06:01;;;;;;;21.53;16.63;;;10.90;99.90;;;;;;5011610;28;20453;-66
2021/10/08 08:08:28;;;;;;;21.13;16.13;;;11.10;99.90;;;;;;5010969;28;20497;-66
2021/10/08 08:10:56;;;;;;;16.60;14.00;;;11.10;99.90;;;;;;5011495;28;20536;-67
2021/10/08 08:13:23;;;;;;;15.00;13.47;;;11.30;99.90;;;;;;5011282;28;20484;-67
2021/10/08 08:15:50;;;;;;;16.23;14.17;;;11.30;99.90;;;;;;5011156;28;20934;-67
2021/10/08 08:18:17;;;;;;;19.27;14.33;;;11.40;99.90;;;;;;5010860;28;20465;-67
2021/10/08 08:20:44;;;;;;;19.67;14.63;;;11.30;99.90;;;;;;5011458;28;20477;-66
2021/10/08 08:23:12;;;;;;;16.67;13.70;;;11.40;99.90;;;;;;5011278;28;20872;-67
2021/10/08 08:25:39;;;;;;;15.13;13.70;;;11.50;99.90;;;;;;5011051;28;20982;-67
2021/10/08 08:28:07;;;;;;;14.13;12.73;;;11.60;99.90;;;;;;5009934;28;20914;-66
2021/10/08 08:30:37;;;;;;;15.83;14.23;;;11.70;99.90;;;;;;5010974;28;20460;-67
2021/10/08 08:33:04;;;;;;;25.47;21.20;;;11.70;99.90;;;;;;5010838;28;21005;-67
2021/10/08 08:35:31;;;;;;;23.00;15.60;;;11.70;99.90;;;;;;5011009;28;20448;-67
2021/10/08 08:37:58;;;;;;;15.27;13.70;;;11.70;99.90;;;;;;5010366;28;20492;-66
2021/10/08 08:40:28;;;;;;;14.97;13.50;;;11.80;99.90;;;;;;5010723;28;20442;-67
2021/10/08 08:42:55;;;;;;;15.50;13.47;;;12.10;99.90;;;;;;5010754;28;20449;-67
2021/10/08 08:45:23;;;;;;;13.30;11.90;;;12.40;99.90;;;;;;5010705;28;20956;-67
2021/10/08 08:48:02;;;;;;;16.00;14.30;;;12.60;99.90;;;;;;5010343;28;20476;-66
2021/10/08 08:50:29;;;;;;;16.10;12.87;;;12.80;99.90;;;;;;5010673;28;20489;-66
2021/10/08 08:52:56;;;;;;;18.40;13.57;;;13.00;99.90;;;;;;5010530;28;20452;-65
2021/10/08 08:55:23;;;;;;;16.27;12.67;;;13.20;99.90;;;;;;5010393;28;20449;-65
2021/10/08 08:57:51;;;;;;;15.43;12.10;;;13.40;99.90;;;;;;5010267;28;20929;-65
2021/10/08 09:00:19;;;;;;;13.13;11.43;;;13.60;99.90;;;;;;5010693;28;20549;-65
2021/10/08 09:02:54;;;;;;;20.90;17.70;;;13.70;99.90;;;;;;5010551;28;20449;-65
2021/10/08 09:05:23;;;;;;;20.30;14.20;;;13.70;99.90;;;;;;5010501;28;20441;-64
2021/10/08 09:07:50;;;;;;;15.63;12.70;;;13.80;99.90;;;;;;5010186;28;20548;-65
2021/10/08 09:10:19;;;;;;;12.60;11.30;;;14.00;99.90;;;;;;5010671;28;20477;-65
2021/10/08 09:12:47;;;;;;;11.40;10.23;;;14.00;99.90;;;;;;5010720;28;20661;-65
2021/10/08 09:15:16;;;;;;;12.03;10.90;;;13.90;99.90;;;;;;5010828;28;20446;-65
2021/10/08 09:17:43;;;;;;;11.27;10.27;;;13.90;99.90;;;;;;5010557;28;20852;-66
2021/10/08 09:20:12;;;;;;;12.73;11.27;;;14.00;99.90;;;;;;5010674;28;20446;-65
2021/10/08 09:22:53;;;;;;;15.03;11.27;;;14.00;99.90;;;;;;5010420;28;20449;-65
2021/10/08 09:25:26;;;;;;;17.30;12.87;;;14.20;99.90;;;;;;5010599;28;20453;-66
2021/10/08 09:27:55;;;;;;;15.90;14.23;;;14.40;99.90;;;;;;5010309;28;20478;-66
2021/10/08 09:30:26;;;;;;;12.77;10.97;;;14.60;99.90;;;;;;5010321;28;20481;-65
2021/10/08 09:32:55;;;;;;;13.00;11.60;;;14.80;99.90;;;;;;5010187;28;20450;-65
2021/10/08 09:35:26;;;;;;;11.73;10.50;;;15.00;99.90;;;;;;5010425;28;20468;-65
2021/10/08 09:37:58;;;;;;;12.20;10.00;;;15.10;99.90;;;;;;5009796;28;20739;-66
2021/10/08 09:40:31;;;;;;;12.47;11.23;;;15.10;99.90;;;;;;5012698;28;20445;-66
2021/10/08 09:43:01;;;;;;;13.67;10.77;;;15.10;99.90;;;;;;5014285;28;20511;-65
2021/10/08 09:45:39;;;;;;;13.33;11.93;;;15.20;99.90;;;;;;5014295;28;20882;-65
2021/10/08 09:48:06;;;;;;;12.73;9.03;;;15.30;99.90;;;;;;5014119;28;20471;-65
2021/10/08 09:50:35;;;;;;;14.03;9.83;;;15.60;99.90;;;;;;5014289;28;20492;-65
2021/10/08 09:53:13;;;;;;;10.20;9.10;;;15.60;99.90;;;;;;5014065;28;20809;-65
2021/10/08 09:55:40;;;;;;;10.77;9.67;;;15.40;99.90;;;;;;5013812;28;20450;-65
2021/10/08 09:58:08;;;;;;;13.93;9.97;;;15.20;99.90;;;;;;5013629;28;20471;-65
2021/10/08 10:00:41;;;;;;;12.23;8.73;;;15.40;99.90;;;;;;5018222;28;21218;-66
2021/10/08 10:03:09;;;;;;;11.97;9.60;;;15.50;99.90;;;;;;5027673;28;20433;-69
2021/10/08 10:05:37;;;;;;;15.20;10.00;;;15.40;99.90;;;;;;5025744;28;20836;-66
2021/10/08 10:08:05;;;;;;;11.17;10.07;;;15.20;99.90;;;;;;5024118;28;20469;-65
2021/10/08 10:10:32;;;;;;;11.77;9.97;;;15.20;99.90;;;;;;5034364;28;20492;-68
2021/10/08 10:13:00;;;;;;;11.90;8.43;;;15.20;99.90;;;;;;5020137;28;20441;-65
2021/10/08 10:15:28;;;;;;;11.70;9.97;;;15.10;99.90;;;;;;5024973;28;20448;-65
2021/10/08 10:17:57;;;;;;;10.37;9.30;;;15.30;99.90;;;;;;5017450;28;20484;-65
2021/10/08 10:20:24;;;;;;;10.27;9.30;;;15.60;99.90;;;;;;5021174;28;20445;-65
2021/10/08 10:22:54;;;;;;;10.87;9.47;;;15.70;99.90;;;;;;5018280;28;20519;-65
2021/10/08 10:25:21;;;;;;;13.13;8.60;;;16.00;99.90;;;;;;5018572;28;20445;-66
2021/10/08 10:27:48;;;;;;;12.23;10.03;;;16.20;99.90;;;;;;5027433;28;20468;-65
2021/10/08 10:30:19;;;;;;;10.50;9.40;;;15.90;99.90;;;;;;5015100;28;20485;-65
2021/10/08 10:32:48;;;;;;;10.40;9.40;;;15.60;99.90;;;;;;5020630;28;20436;-65
2021/10/08 10:35:41;;;;;;;12.00;9.53;;;15.60;99.90;;;;;;5017264;28;20449;-65
2021/10/08 10:38:29;;;;;;;10.60;9.50;;;15.60;99.90;;;;;;5025950;28;20508;-65
2021/10/08 10:41:23;;;;;;;15.33;9.40;;;15.50;99.90;;;;;;5024003;28;20445;-64
2021/10/08 10:43:56;;;;;;;14.03;9.17;;;15.50;99.90;;;;;;5014250;28;20871;-64
2021/10/08 10:52:28;;;;;;;12.33;9.13;;;15.90;99.90;;;;;;5027910;28;20524;-65
2021/10/08 10:55:03;;;;;;;10.30;9.30;;;16.00;99.90;;;;;;5020112;28;20475;-65
2021/10/08 10:58:10;;;;;;;13.90;10.17;;;16.30;99.90;;;;;;5020368;28;20509;-65
2021/10/08 11:00:46;;;;;;;10.93;9.70;;;15.80;99.90;;;;;;5017668;28;20437;-66
2021/10/08 11:03:29;;;;;;;11.53;10.30;;;15.50;99.90;;;;;;5031472;28;20998;-66
2021/10/08 11:06:13;;;;;;;13.23;9.67;;;15.40;99.90;;;;;;5031328;28;20823;-65
2021/10/08 11:09:20;;;;;;;12.47;11.17;;;15.60;99.90;;;;;;5030765;28;20471;-64
2021/10/08 11:12:27;;;;;;;12.60;9.50;;;15.70;99.90;;;;;;5032434;28;20805;-65
2021/10/08 11:15:27;;;;;;;10.07;9.07;;;15.90;99.90;;;;;;5031913;28;20444;-66
2021/10/08 11:17:55;;;;;;;12.93;10.27;;;16.20;99.90;;;;;;5031696;28;21186;-68
2021/10/08 11:20:45;;;;;;;9.90;8.90;;;16.10;99.90;;;;;;5032071;28;20448;-65
2021/10/08 11:23:23;;;;;;;10.87;8.47;;;16.10;99.90;;;;;;5031735;28;20484;-66
2021/10/08 11:25:52;;;;;;;11.33;9.90;;;16.30;99.90;;;;;;5032117;28;20539;-66
2021/10/08 11:28:26;;;;;;;12.10;8.63;;;16.00;99.90;;;;;;5031695;28;20809;-63
2021/10/08 11:30:53;;;;;;;11.40;9.70;;;16.10;99.90;;;;;;5031836;28;20542;-65
2021/10/08 11:33:32;;;;;;;10.77;9.77;;;16.10;99.90;;;;;;5029527;28;20437;-65
2021/10/08 11:35:59;;;;;;;10.77;9.00;;;16.10;99.90;;;;;;5017677;28;20452;-65
2021/10/08 11:38:26;;;;;;;11.00;9.90;;;16.30;99.90;;;;;;5021338;28;20500;-66
2021/10/08 11:40:52;;;;;;;10.23;8.90;;;16.30;99.90;;;;;;5019026;28;20525;-65
2021/10/08 11:43:28;;;;;;;10.67;9.57;;;16.60;99.90;;;;;;5028037;28;20437;-65
2021/10/08 11:46:01;;;;;;;10.23;9.13;;;16.50;99.90;;;;;;5022954;28;20540;-65
2021/10/08 11:48:39;;;;;;;11.13;8.97;;;16.30;99.90;;;;;;5020672;28;20468;-65
2021/10/08 11:51:07;;;;;;;10.03;9.03;;;16.30;99.90;;;;;;5021618;28;20558;-67
2021/10/08 11:53:41;;;;;;;11.10;9.90;;;16.10;99.90;;;;;;5022226;28;20448;-66
2021/10/08 11:56:24;;;;;;;11.77;9.40;;;16.00;99.90;;;;;;5019662;28;20958;-66
2021/10/08 11:58:53;;;;;;;10.17;9.17;;;15.90;99.90;;;;;;5020026;28;20446;-66
2021/10/08 12:01:21;;;;;;;13.33;11.23;;;16.10;99.90;;;;;;5021055;28;20449;-65
2021/10/08 12:03:48;;;;;;;10.70;9.37;;;16.10;99.90;;;;;;5018282;28;21134;-67
2021/10/08 12:06:21;;;;;;;10.87;9.77;;;16.10;99.90;;;;;;5022597;28;20520;-64
2021/10/08 12:08:48;;;;;;;10.93;9.70;;;16.20;99.90;;;;;;5020141;28;20556;-64
2021/10/08 12:11:17;;;;;;;12.43;10.37;;;15.90;99.90;;;;;;5019556;28;21005;-64
2021/10/08 12:13:46;;;;;;;11.73;10.53;;;15.80;99.90;;;;;;5021425;28;20492;-64
2021/10/08 12:16:16;;;;;;;14.67;10.37;;;15.70;99.90;;;;;;5021945;28;20444;-66
2021/10/08 12:18:47;;;;;;;11.60;10.23;;;15.50;99.90;;;;;;5030290;28;20465;-67
2021/10/08 12:21:15;;;;;;;12.10;10.83;;;15.60;99.90;;;;;;5025271;28;20437;-65
2021/10/08 12:23:43;;;;;;;12.00;10.70;;;15.70;99.90;;;;;;5029230;28;20441;-66
2021/10/08 12:26:12;;;;;;;11.87;9.87;;;15.70;99.90;;;;;;5029950;28;20444;-64
2021/10/08 12:28:38;;;;;;;12.43;11.13;;;15.70;99.90;;;;;;5030602;28;20476;-65
2021/10/08 12:31:08;;;;;;;13.00;10.17;;;15.60;99.90;;;;;;5030745;28;20480;-66
2021/10/08 12:33:39;;;;;;;16.67;11.47;;;15.70;99.90;;;;;;5030579;28;20455;-66
2021/10/08 12:36:22;;;;;;;12.67;10.63;;;15.70;99.90;;;;;;5030269;28;20451;-66
2021/10/08 12:39:01;;;;;;;11.07;9.97;;;15.60;99.90;;;;;;5029812;28;20467;-65
2021/10/08 12:41:31;;;;;;;12.20;9.90;;;15.60;99.90;;;;;;5030698;28;20451;-65
2021/10/08 12:44:12;;;;;;;12.63;10.37;;;15.80;99.90;;;;;;5023925;28;20441;-65
2021/10/08 12:46:41;;;;;;;13.07;10.27;;;15.90;99.90;;;;;;5018211;28;20452;-65
2021/10/08 12:49:10;;;;;;;11.70;10.50;;;16.20;99.90;;;;;;5025770;28;20952;-65
2021/10/08 12:51:48;;;;;;;12.70;11.00;;;16.60;99.90;;;;;;5009444;28;20503;-65